Lincoln, Nebraska
Current Conditions -  °F | °C
As of 6:54 AM on Friday 19 Dec 2014 (Local Time) from KLNK Reporting Station
Haze Haze  
Wind Chill: -4°   Ceiling: 1800
Heat Index: -1°   Visibility: 5mi
Dew Point: -2°   Wind: 6mph
Humidity: 89%   Direction: 150°SSE
Pressure: 30.21"   Gusts: NA
Location:  40.81°N, 96.71°W
Report Text: KLNK 191254Z 15005KT 5SM BR OVC018 M01/M02 A3021 RMK AO2 SLP243 T10061022
Loading
Personal Weather Stations






























Interactive Weather Map New forecast layout! Learn more

10-Day Weather Forecast

Advertisements
Track Severe Weather on mobile